createdAt,value
2018-04-19T00:01:30.701Z,73.55
2018-04-19T00:04:18.743Z,78.25
2018-04-19T00:07:01.370Z,82.22
2018-04-19T00:09:32.275Z,78.68
2018-04-19T00:12:03.178Z,76.35
2018-04-19T00:14:34.557Z,81.40
2018-04-19T00:17:05.679Z,78.37
2018-04-19T00:19:36.551Z,72.12
2018-04-19T00:22:07.371Z,79.18
2018-04-19T00:24:38.195Z,75.57
2018-04-19T00:27:09.114Z,74.43
2018-04-19T00:29:40.064Z,69.15
2018-04-19T00:32:11.033Z,74.55
2018-04-19T00:34:41.929Z,73.57
2018-04-19T00:37:12.660Z,76.32
2018-04-19T00:39:43.237Z,83.78
2018-04-19T00:42:14.002Z,78.53
2018-04-19T00:44:45.124Z,78.57
2018-04-19T00:47:16.076Z,76.40
2018-04-19T00:49:46.706Z,75.50
2018-04-19T00:52:17.571Z,80.03
2018-04-19T00:54:48.316Z,71.87
2018-04-19T00:57:18.992Z,78.57
2018-04-19T00:59:49.733Z,75.22
2018-04-19T01:02:20.761Z,79.07
2018-04-19T01:04:51.568Z,81.35
2018-04-19T01:07:22.874Z,84.55
2018-04-19T01:09:53.593Z,87.70
2018-04-19T01:12:24.395Z,81.90
2018-04-19T01:14:55.540Z,86.95
2018-04-19T01:17:26.194Z,84.80
2018-04-19T01:19:56.716Z,82.45
2018-04-19T01:22:27.660Z,79.90
2018-04-19T01:24:58.387Z,82.45
2018-04-19T01:27:29.004Z,80.80
2018-04-19T01:29:59.680Z,79.72
2018-04-19T01:32:30.482Z,76.45
2018-04-19T01:35:01.355Z,72.78
2018-04-19T01:37:32.444Z,78.43
2018-04-19T01:40:03.176Z,75.55
2018-04-19T01:42:33.904Z,74.85
2018-04-19T01:45:04.801Z,79.32
2018-04-19T01:47:35.440Z,75.57
2018-04-19T01:50:06.267Z,75.20
2018-04-19T01:52:37.044Z,80.90
2018-04-19T01:55:07.799Z,75.60
2018-04-19T01:57:38.612Z,72.03
2018-04-19T02:00:09.505Z,76.95
2018-04-19T02:02:40.194Z,76.18
2018-04-19T02:05:10.977Z,77.20
2018-04-19T02:07:41.818Z,76.00
2018-04-19T02:10:12.794Z,67.93
2018-04-19T02:12:43.648Z,71.10
2018-04-19T02:15:14.560Z,72.28
2018-04-19T02:17:45.297Z,72.18
2018-04-19T02:20:16.097Z,79.05
2018-04-19T02:22:46.816Z,78.62
2018-04-19T02:25:17.891Z,70.90
2018-04-19T02:27:48.570Z,70.97
2018-04-19T02:30:19.468Z,72.03
2018-04-19T02:32:50.143Z,73.07
2018-04-19T02:35:20.904Z,71.75
2018-04-19T02:37:51.655Z,74.75
2018-04-19T02:40:22.416Z,66.47
2018-04-19T02:42:53.032Z,70.90
2018-04-19T02:51:26.320Z,69.93
2018-04-19T02:53:56.985Z,75.30
2018-04-19T02:56:27.952Z,75.45
2018-04-19T02:58:58.779Z,72.00
2018-04-19T03:01:29.512Z,66.65
2018-04-19T03:04:00.220Z,73.82
2018-04-19T03:06:31.162Z,73.10
2018-04-19T03:09:01.817Z,80.85
2018-04-19T03:11:32.564Z,71.25
2018-04-19T03:14:03.301Z,75.10
2018-04-19T03:16:34.678Z,81.35
2018-04-19T03:19:05.454Z,73.90
2018-04-19T03:21:36.177Z,74.18
2018-04-19T03:24:06.944Z,74.97
2018-04-19T03:26:37.906Z,76.47
2018-04-19T03:29:08.718Z,67.50
2018-04-19T03:31:39.658Z,62.08
2018-04-19T03:34:10.552Z,70.45
2018-04-19T03:36:41.268Z,67.55
2018-04-19T03:39:11.872Z,73.50
2018-04-19T03:41:42.628Z,68.03
2018-04-19T03:44:13.457Z,71.78
2018-04-19T03:46:44.344Z,63.40
2018-04-19T03:49:15.032Z,71.47
2018-04-19T03:51:46.175Z,68.47
2018-04-19T03:54:16.995Z,68.20
2018-04-19T03:56:47.806Z,77.15
2018-04-19T03:59:18.609Z,73.70
2018-04-19T04:01:49.288Z,73.18
2018-04-19T04:04:19.985Z,72.57
2018-04-19T04:06:50.722Z,66.05
2018-04-19T04:09:21.455Z,70.50
2018-04-19T04:11:52.063Z,75.75
2018-04-19T04:14:22.670Z,88.03
2018-04-19T04:19:08.678Z,65.30
2018-04-19T04:21:48.374Z,61.45
2018-04-19T04:24:19.221Z,68.00
2018-04-19T04:26:49.912Z,63.50
2018-04-19T04:29:20.585Z,65.62
2018-04-19T04:31:51.312Z,67.47
2018-04-19T04:34:22.084Z,67.70
2018-04-19T04:36:52.788Z,66.82
2018-04-19T04:39:23.512Z,69.78
2018-04-19T04:41:54.105Z,63.00
2018-04-19T04:44:24.894Z,68.30
2018-04-19T04:46:55.562Z,67.57
2018-04-19T04:49:26.284Z,68.20
2018-04-19T04:51:57.049Z,73.65
2018-04-19T04:54:27.843Z,79.43
2018-04-19T04:56:59.202Z,73.87
2018-04-19T04:59:30.460Z,71.20
2018-04-19T05:02:01.641Z,71.62
2018-04-19T05:04:32.804Z,73.18
2018-04-19T05:07:04.441Z,69.05
2018-04-19T05:09:35.233Z,64.80
2018-04-19T05:12:06.255Z,68.78
2018-04-19T05:14:50.040Z,66.50
2018-04-19T05:17:24.540Z,69.85
2018-04-19T05:20:02.329Z,69.30
2018-04-19T05:22:36.520Z,65.87
2018-04-19T05:25:09.399Z,69.45
2018-04-19T05:27:43.299Z,73.43
2018-04-19T05:30:15.256Z,62.83
2018-04-19T05:32:48.198Z,71.50
2018-04-19T05:35:20.960Z,66.57
2018-04-19T05:37:53.226Z,70.93
2018-04-19T05:40:24.578Z,77.78
2018-04-19T05:42:55.783Z,68.35
2018-04-19T05:48:43.952Z,69.32
2018-04-19T05:51:15.022Z,69.40
2018-04-19T05:53:50.965Z,74.00
2018-04-19T05:56:24.559Z,71.07
2018-04-19T05:58:55.409Z,66.55
2018-04-19T06:01:26.669Z,74.47
2018-04-19T06:04:07.443Z,90.97
2018-04-19T06:10:04.814Z,87.78
2018-04-19T06:12:35.817Z,70.62
2018-04-19T06:15:14.401Z,84.32
2018-04-19T06:17:45.817Z,73.30
2018-04-19T06:23:59.621Z,88.43
2018-04-19T06:39:50.229Z,89.20
2018-04-19T06:48:40.596Z,80.22
2018-04-19T06:51:11.221Z,79.95
2018-04-19T06:53:42.261Z,83.10
2018-04-19T06:56:13.152Z,80.62
2018-04-19T06:58:43.788Z,76.37
2018-04-19T07:01:14.540Z,79.47
2018-04-19T07:03:46.183Z,81.68
2018-04-19T07:06:17.168Z,83.85
2018-04-19T07:08:48.053Z,79.60
2018-04-19T07:11:18.794Z,92.37
2018-04-19T07:13:49.812Z,87.00
2018-04-19T07:16:20.584Z,83.18
2018-04-19T07:18:52.229Z,91.60
2018-04-19T07:21:22.995Z,87.25
2018-04-19T07:23:53.700Z,92.10
2018-04-19T07:26:24.654Z,92.62
2018-04-19T07:28:55.571Z,90.85
2018-04-19T07:31:26.352Z,91.37
2018-04-19T07:36:55.081Z,85.70
2018-04-19T07:39:25.764Z,89.55
2018-04-19T07:41:56.539Z,94.07
2018-04-19T07:44:27.129Z,86.47
2018-04-19T07:46:57.935Z,84.82
2018-04-19T07:49:28.649Z,86.20
2018-04-19T07:51:59.519Z,95.22
2018-04-19T07:54:30.183Z,92.72
2018-04-19T07:57:01.367Z,85.80
2018-04-19T07:59:32.553Z,82.72
2018-04-19T08:02:03.869Z,88.87
2018-04-19T08:04:34.668Z,83.25
2018-04-19T08:07:05.228Z,86.22
2018-04-19T08:09:36.075Z,93.70
2018-04-19T08:12:07.127Z,95.25
2018-04-19T08:14:38.096Z,96.18
2018-04-19T08:17:09.553Z,104.93
2018-04-19T08:19:41.027Z,93.60
2018-04-19T08:22:12.217Z,94.97
2018-04-19T08:24:43.153Z,101.03
2018-04-19T08:27:13.975Z,97.35
2018-04-19T08:29:44.671Z,91.07
2018-04-19T08:32:15.872Z,98.07
2018-04-19T08:34:47.075Z,87.07
2018-04-19T08:37:18.127Z,92.30
2018-04-19T08:39:49.205Z,91.65
2018-04-19T08:42:20.307Z,88.97
2018-04-19T08:44:51.209Z,89.95
2018-04-19T08:47:22.159Z,90.07
2018-04-19T08:49:52.963Z,92.90
2018-04-19T08:52:24.531Z,87.35
2018-04-19T08:55:05.423Z,103.78
2018-04-19T09:00:48.308Z,91.55
2018-04-19T09:03:28.979Z,99.95
2018-04-19T09:06:06.564Z,97.60
2018-04-19T09:08:39.459Z,98.65
2018-04-19T09:11:15.557Z,95.32
2018-04-19T09:13:54.648Z,96.82
2018-04-19T09:16:25.968Z,97.90
2018-04-19T09:18:56.944Z,93.70
2018-04-19T09:21:28.118Z,97.68
2018-04-19T09:23:59.084Z,94.65
2018-04-19T09:26:35.827Z,90.60
2018-04-19T09:29:07.100Z,96.95
2018-04-19T09:31:38.305Z,95.90
2018-04-19T09:34:09.395Z,99.15
2018-04-19T09:36:40.365Z,96.90
2018-04-19T09:39:11.147Z,96.30
2018-04-19T09:41:42.276Z,97.10
2018-04-19T09:44:13.238Z,98.93
2018-04-19T09:46:44.080Z,94.37
2018-04-19T09:49:14.890Z,99.22
2018-04-19T09:51:46.628Z,96.57
2018-04-19T09:54:19.422Z,92.37
2018-04-19T09:56:51.774Z,96.47
2018-04-19T09:59:22.837Z,93.78
2018-04-19T10:02:02.723Z,93.05
2018-04-19T10:07:39.500Z,114.50
2018-04-19T10:10:10.478Z,109.45
2018-04-19T10:12:41.997Z,96.63
2018-04-19T10:15:13.892Z,97.45
2018-04-19T10:17:45.617Z,92.18
2018-04-19T10:20:16.816Z,103.80
2018-04-19T10:22:50.391Z,94.95
2018-04-19T10:25:22.074Z,100.55
2018-04-19T10:27:55.128Z,98.35
2018-04-19T10:30:26.033Z,98.95
2018-04-19T10:32:57.046Z,98.70
2018-04-19T10:35:27.692Z,99.28
2018-04-19T10:37:58.927Z,100.70
2018-04-19T10:40:29.467Z,94.28
2018-04-19T10:43:00.352Z,100.07
2018-04-19T10:45:31.984Z,94.28
2018-04-19T10:48:02.734Z,91.45
2018-04-19T10:50:33.818Z,103.87
2018-04-19T10:53:05.957Z,97.25
2018-04-19T10:55:36.760Z,95.35
2018-04-19T10:58:09.034Z,102.47
2018-04-19T11:00:40.418Z,96.15
2018-04-19T11:03:11.444Z,94.30
2018-04-19T11:05:43.330Z,107.22
2018-04-19T11:08:14.387Z,106.97
2018-04-19T11:10:46.278Z,98.85
2018-04-19T11:23:09.274Z,109.75
2018-04-19T11:25:40.542Z,102.87
2018-04-19T11:28:11.678Z,108.47
2018-04-19T11:30:42.958Z,102.82
2018-04-19T11:33:13.812Z,108.78
2018-04-19T11:35:44.838Z,108.12
2018-04-19T11:38:15.864Z,102.20
2018-04-19T11:40:46.713Z,104.15
2018-04-19T11:43:17.965Z,95.97
2018-04-19T11:45:48.868Z,105.10
2018-04-19T11:48:21.323Z,99.22
2018-04-19T11:50:53.328Z,98.40
2018-04-19T11:53:26.377Z,92.07
2018-04-19T11:55:59.768Z,97.60
2018-04-19T11:58:30.830Z,93.87
2018-04-19T12:01:02.304Z,89.35
2018-04-19T12:03:33.935Z,91.72
2018-04-19T12:06:05.439Z,92.25
2018-04-19T12:08:36.575Z,98.10
2018-04-19T12:11:07.435Z,98.07
2018-04-19T12:13:39.853Z,94.37
2018-04-19T12:16:11.183Z,91.57
2018-04-19T12:18:42.166Z,97.60
2018-04-19T12:21:13.287Z,105.20
2018-04-19T12:23:44.454Z,102.43
2018-04-19T12:26:15.393Z,98.62
2018-04-19T12:28:46.109Z,97.40
2018-04-19T12:31:16.838Z,97.05
2018-04-19T12:33:47.810Z,99.40
2018-04-19T12:36:18.424Z,97.10
2018-04-19T12:38:49.714Z,79.40
2018-04-19T12:41:20.866Z,89.85
2018-04-19T12:46:53.693Z,101.55
2018-04-19T12:49:32.841Z,88.15
2018-04-19T12:52:19.905Z,96.32
2018-04-19T12:54:59.252Z,88.82
2018-04-19T12:57:30.643Z,85.40
2018-04-19T13:00:01.641Z,88.97
2018-04-19T13:05:12.853Z,90.72
2018-04-19T13:07:43.789Z,95.70
2018-04-19T13:10:14.799Z,88.60
2018-04-19T13:12:47.865Z,91.30
2018-04-19T13:15:33.127Z,89.72
2018-04-19T13:18:04.719Z,83.32
2018-04-19T13:20:43.486Z,104.43
2018-04-19T13:32:26.136Z,98.15
2018-04-19T13:37:45.894Z,84.32
2018-04-19T13:40:16.889Z,97.80
2018-04-19T13:42:52.705Z,87.60
2018-04-19T13:45:24.372Z,90.12
2018-04-19T13:48:06.203Z,93.55
2018-04-19T13:56:22.990Z,94.03
2018-04-19T13:58:54.189Z,100.00
2018-04-19T14:01:32.576Z,93.35
2018-04-19T14:13:46.128Z,119.15
2018-04-19T14:16:17.632Z,96.70
2018-04-19T14:18:48.568Z,83.47
2018-04-19T14:23:59.224Z,87.55
2018-04-19T14:26:45.403Z,113.50
2018-04-19T14:29:17.293Z,97.85
2018-04-19T14:31:49.241Z,99.75
2018-04-19T14:34:21.348Z,98.37
2018-04-19T14:36:52.937Z,98.50
2018-04-19T14:39:38.689Z,97.30
2018-04-19T15:13:42.466Z,96.43
2018-04-19T15:16:13.741Z,90.68
2018-04-19T15:18:44.940Z,89.25
2018-04-19T15:21:15.772Z,98.18
2018-04-19T15:23:46.888Z,97.62
2018-04-19T15:26:17.740Z,94.60
2018-04-19T15:28:48.691Z,90.38
2018-04-19T15:31:19.356Z,94.05
2018-04-19T15:33:50.220Z,99.60
2018-04-19T15:36:21.085Z,98.70
2018-04-19T15:38:52.293Z,92.07
2018-04-19T15:41:26.249Z,99.28
2018-04-19T15:43:58.922Z,98.28
2018-04-19T15:46:29.617Z,96.22
2018-04-19T15:49:03.102Z,95.85
2018-04-19T15:51:35.146Z,96.87
2018-04-19T15:54:06.207Z,105.40
2018-04-19T15:56:37.113Z,93.95
2018-04-19T15:59:10.637Z,98.80
2018-04-19T16:01:42.342Z,94.07
2018-04-19T16:04:13.946Z,98.20
2018-04-19T16:06:44.651Z,97.07
2018-04-19T16:09:15.383Z,97.65
2018-04-19T16:11:52.852Z,107.07
2018-04-19T16:14:17.284Z,100.10
2018-04-19T16:16:48.429Z,90.60
2018-04-19T16:19:19.306Z,100.68
2018-04-19T16:21:50.428Z,91.78
2018-04-19T16:24:21.196Z,96.55
2018-04-19T16:26:51.847Z,96.75
2018-04-19T16:29:22.603Z,96.47
2018-04-19T16:31:53.560Z,107.90
2018-04-19T16:34:24.292Z,104.70
2018-04-19T16:36:55.129Z,96.97
2018-04-19T16:39:31.190Z,97.88
2018-04-19T16:42:02.232Z,99.43
2018-04-19T16:44:33.343Z,96.05
2018-04-19T17:06:44.547Z,114.95
2018-04-19T17:15:54.809Z,95.28
2018-04-19T17:18:38.570Z,96.70
2018-04-19T17:24:25.965Z,99.00
2018-04-19T17:26:57.988Z,97.43
2018-04-19T17:29:29.928Z,99.72
2018-04-19T17:35:41.440Z,109.28
2018-04-19T17:44:36.623Z,102.87
2018-04-19T18:00:44.805Z,108.57
2018-04-19T18:03:34.404Z,112.28
2018-04-19T18:06:05.275Z,105.63
2018-04-19T18:08:36.329Z,103.03
2018-04-19T18:11:07.199Z,104.40
2018-04-19T18:13:38.033Z,104.80
2018-04-19T18:16:08.826Z,90.45
2018-04-19T18:21:59.441Z,103.05
2018-04-19T18:24:31.192Z,106.95
2018-04-19T18:30:22.669Z,99.82
2018-04-19T18:32:54.656Z,96.82
2018-04-19T18:38:57.268Z,117.32
2018-04-19T18:41:33.328Z,114.22
2018-04-19T18:44:24.561Z,114.32
2018-04-19T18:47:14.556Z,99.47
2018-04-19T18:53:36.580Z,97.93
2018-04-19T18:56:47.360Z,110.22
2018-04-19T18:59:51.999Z,100.80
2018-04-19T19:06:04.343Z,100.78
2018-04-19T19:08:44.803Z,107.40
2018-04-19T19:24:13.197Z,97.20
2018-04-19T19:29:52.189Z,99.40
2018-04-19T19:32:46.694Z,90.20
2018-04-19T19:39:01.279Z,104.12
2018-04-19T19:41:50.186Z,104.82
2018-04-19T19:44:37.510Z,98.25
2018-04-19T19:53:12.122Z,102.50
2018-04-19T19:55:46.309Z,102.25
2018-04-19T19:58:18.746Z,104.93
2018-04-19T20:03:30.579Z,102.20
2018-04-19T20:06:03.113Z,98.28
2018-04-19T20:08:35.267Z,99.95
2018-04-19T20:11:06.515Z,99.65
2018-04-19T20:13:38.203Z,99.50
2018-04-19T20:16:09.809Z,95.87
2018-04-19T20:18:41.844Z,101.18
2018-04-19T20:21:20.667Z,105.65
2018-04-19T20:23:52.281Z,95.55
2018-04-19T20:26:23.437Z,103.57
2018-04-19T20:28:55.028Z,100.10
2018-04-19T20:31:26.830Z,99.85
2018-04-19T20:33:58.352Z,107.53
2018-04-19T20:36:29.544Z,104.68
2018-04-19T20:39:01.913Z,100.78
2018-04-19T20:41:33.270Z,101.38
2018-04-19T20:55:02.100Z,101.15
2018-04-19T20:57:45.493Z,100.55
2018-04-19T21:03:31.239Z,98.53
2018-04-19T21:06:30.715Z,94.07
2018-04-19T21:09:41.082Z,99.32
2018-04-19T21:13:10.708Z,108.20
2018-04-19T21:16:39.729Z,100.55
2018-04-19T21:19:31.942Z,106.55
2018-04-19T21:22:22.839Z,99.62
2018-04-19T21:25:21.881Z,94.68
2018-04-19T21:28:19.695Z,95.60
2018-04-19T21:31:00.932Z,93.32
2018-04-19T21:33:49.521Z,94.75
2018-04-19T21:36:38.214Z,92.95
2018-04-19T21:39:19.512Z,96.30
2018-04-19T21:42:31.905Z,91.40
2018-04-19T21:46:00.687Z,93.40
2018-04-19T22:01:45.142Z,77.97
2018-04-19T22:05:34.920Z,80.20
2018-04-19T22:16:26.015Z,88.60
2018-04-19T22:19:13.327Z,92.28
2018-04-19T22:21:46.298Z,90.72
2018-04-19T22:24:18.097Z,94.50
2018-04-19T22:26:50.547Z,97.28
2018-04-19T22:29:27.379Z,100.55
2018-04-19T22:31:59.942Z,84.10
2018-04-19T22:34:36.543Z,86.47
2018-04-19T22:37:08.864Z,84.82
2018-04-19T22:42:24.433Z,86.82
2018-04-19T22:44:57.097Z,87.57
2018-04-19T22:47:33.586Z,84.30
2018-04-19T22:50:05.280Z,85.68
2018-04-19T22:52:37.575Z,77.35
2018-04-19T22:55:09.567Z,80.25
2018-04-19T22:57:46.688Z,80.80
2018-04-19T23:00:19.638Z,83.47
2018-04-19T23:02:51.638Z,81.30
2018-04-19T23:05:25.664Z,82.88
2018-04-19T23:07:57.730Z,86.10
2018-04-19T23:10:30.288Z,84.87
2018-04-19T23:13:03.521Z,79.37
2018-04-19T23:15:36.497Z,88.70
2018-04-19T23:18:08.577Z,86.05
2018-04-19T23:20:40.265Z,81.43
2018-04-19T23:23:11.539Z,88.85
2018-04-19T23:25:43.284Z,87.95
2018-04-19T23:28:14.405Z,81.60
2018-04-19T23:30:45.417Z,85.75
2018-04-19T23:33:16.524Z,82.90
2018-04-19T23:35:47.440Z,79.07
2018-04-19T23:38:18.642Z,84.53
2018-04-19T23:40:50.283Z,86.82
2018-04-19T23:43:22.856Z,80.43
2018-04-19T23:45:56.142Z,83.15
2018-04-19T23:48:30.540Z,86.57
2018-04-19T23:51:04.075Z,85.62
2018-04-19T23:53:35.954Z,77.20
2018-04-19T23:56:08.685Z,83.82
2018-04-19T23:58:43.660Z,80.60
